GMTA/AHU METAR and TAF weather

Enter ICAO airport designator
Station Type Date Time Source
GMTA METAR 2022/06/29 00:00 UTC NOAA

GMTA 290000Z 00000KT CAVOK 18/15 Q1016 NOSIG


Station Type Date Time Source
GMTA Decoded METAR 2022/06/29 00:00 UTC NOAA

Al Hoceima, Morocco (GMTA) 35-11N 003-51W 14M
Jun 28, 2022 - 08:00 PM EDT / 2022.06.29 0000 UTC
Wind: Calm:0
Visibility: greater than 7 mile(s):0
Temperature: 64 F (18 C)
Dew Point: 59 F (15 C)
Relative Humidity: 82%
Pressure (altimeter): 30.00 in. Hg (1016 hPa)
ob: GMTA 290000Z 00000KT CAVOK 18/15 Q1016 NOSIG
cycle: 0

Station Type Date Time Source
GMTA TAF 2022/06/28 18:18 UTC NOAA

TAF GMTA 281700Z 2818/2924 34005KT CAVOK

Example: see airport list